Airfield :
LOGIN :

Register | Disclaimer

   EN    FR    IT 

 










Legend :    VFR   Marginal VFR   IFR   Intensive IFR   Very Intensive IFR
Visi :
Ceiling :
>= 8 km
>= 3000ft
5 to 8 km
1000 to 3000 ft
1500m to 5 km
500 to 1000 ft
800 to 1500m
200 to 500 ft
< 800m
< 200 ft
Symbols :   Thunderstorms  Fog  Heavy snow  Heavy precipitations  Wind > 20 kt
SIGMETs :     Misc.  Thunderstorms  Icing  Turbulence  Mountain Waves  Volcanic Ashes






- Airport Elevation : 2945 ft
- IATA code : RGS


LEBG - Burgos

CURRENT METAR :
  • 120500Z AUTO 22010KT 190V250 9999 OVC006 03/03 Q1019

EXPIRED METARs :
  • 120430Z AUTO 21010KT 9999 OVC006 03/03 Q1019
  • 120400Z AUTO 22012KT 9999 OVC005 03/02 Q1019
  • 120330Z AUTO 22011KT 9999 OVC008 03/02 Q1020
  • 120300Z AUTO 22012KT 9999 BKN009 BKN023 03/02 Q1020
  • 120230Z AUTO 22013KT 9999 BKN012 BKN022 03/02 Q1020

TAF TAF LEBG
Valid from the 12 at 03:00 until the 12 at 12:00 UTC


120200Z 1203/1212 23010KT 9999 SCT020 SCT045
BECMG 1204/1206 23020KT
PROB40
TEMPO 1208/1212 23020G32KT



MET'MAP, your aeronautical weather chart ! - Copyright ORBIFLY December 2007 - Disclaimer

ORBIFLY MET'MAP TEAM :

Programming & Development : Alexandra Zaïnal
Concept & original design : Baudouin d'Aumeries
Assistance for programming : Marc-Olivier Méhu
Technical & hardware support : Manuel Goepfert

Contact : metmap@orbifly.com




SOURCES & CREDITS :

   NOAA